07/04/05 - 22h:52mDenunciar

Dassault Mirage III RS

Mirage momentos antes de tocar o "piano" (linhas de referência do início da pista). Em breve incluirei explicações sobre os principais tipos de propulsores utilizados pelos aviões, dentre eles o turbojato, categoria à qual pertence a Snecma Atar 09C usada pelos Mirage III.





METAR SBPB 080200Z 00000KT CAVOK 25/25 Q1011=

Comentários (0)

Fotos postadas a mais de 15 dias não podem receber comentários.